Time;durP1;ratioP1;P1;durP2;ratioP2;P2;SDS_P1;SDS_P2;PMS_P1;PMS_P2;Temp;Humidity;BMP_temperature;BMP_pressure;BME280_temperature;BME280_humidity;BME280_pressure;Samples;Min_cycle;Max_cycle;Signal;HPM_P1;HPM_P2
2023/05/10 00:00:50;;;;;;;;;2.25;2.25;;;;;14.84;65.07;100858.13;4960229;28;45304;-71
2023/05/10 00:03:16;;;;;;;;;1.00;1.00;;;;;14.71;65.14;100819.50;4960406;28;45500;-73
2023/05/10 00:05:41;;;;;;;;;2.00;1.67;;;;;14.75;64.70;100835.03;4958389;28;53074;-72
2023/05/10 00:08:06;;;;;;;;;3.00;1.67;;;;;14.52;64.93;100823.34;4958677;28;45303;-72
2023/05/10 00:10:32;;;;;;;;;1.50;1.50;;;;;14.65;64.46;100845.09;4959875;28;45521;-73
2023/05/10 00:12:57;;;;;;;;;1.00;1.00;;;;;14.48;64.52;100822.00;4960073;28;45288;-73
2023/05/10 00:15:22;;;;;;;;;3.67;1.67;;;;;14.43;64.42;100841.25;4958432;28;47343;-73
2023/05/10 00:17:48;;;;;;;;;0.00;0.00;;;;;14.37;64.68;100846.38;4959962;28;45456;-73
2023/05/10 00:20:13;;;;;;;;;1.00;0.00;;;;;14.23;64.43;100835.34;4960485;28;45388;-72
2023/05/10 00:22:39;;;;;;;;;0.00;0.00;;;;;13.97;64.79;100807.88;4958694;28;45561;-71
2023/05/10 00:25:05;;;;;;;;;5.50;1.00;;;;;14.20;64.91;100832.97;4960412;28;45664;-70
2023/05/10 00:27:30;;;;;;;;;3.00;0.67;;;;;14.20;64.46;100829.47;4958212;28;45681;-72
2023/05/10 00:29:55;;;;;;;;;1.33;0.33;;;;;14.04;64.02;100808.09;4958734;28;45364;-71
2023/05/10 00:32:21;;;;;;;;;0.00;0.00;;;;;14.09;63.88;100825.28;4959847;28;45345;-72
2023/05/10 00:34:46;;;;;;;;;0.00;0.00;;;;;14.05;63.64;100823.94;4959498;28;46224;-72
2023/05/10 00:37:11;;;;;;;;;1.33;0.00;;;;;14.05;63.87;100831.97;4957894;28;45814;-72
2023/05/10 00:39:37;;;;;;;;;1.00;1.00;;;;;13.53;63.65;100746.66;4959492;28;45468;-72
2023/05/10 00:42:02;;;;;;;;;0.00;0.00;;;;;14.08;63.42;100853.03;4959776;28;45350;-72
2023/05/10 00:44:27;;;;;;;;;0.00;0.00;;;;;13.97;63.53;100856.84;4959382;28;45975;-73
2023/05/10 00:46:53;;;;;;;;;1.00;1.00;;;;;13.45;63.54;100769.84;4959537;28;45354;-72
2023/05/10 00:49:20;;;;;;;;;0.33;0.33;;;;;14.01;64.09;100860.00;4959947;28;45488;-71
2023/05/10 00:51:46;;;;;;;;;0.33;0.33;;;;;14.00;63.88;100853.00;4960663;28;45492;-72
2023/05/10 00:54:13;;;;;;;;;3.75;1.00;;;;;13.99;64.25;100865.53;4958788;28;47624;-72
2023/05/10 00:56:40;;;;;;;;;0.67;0.67;;;;;14.01;63.97;100868.03;4960793;28;45326;-72
2023/05/10 00:59:05;;;;;;;;;0.25;0.25;;;;;13.93;64.08;100868.84;4959754;28;45397;-71
2023/05/10 01:01:31;;;;;;;;;1.50;1.50;;;;;13.93;64.11;100870.69;4959522;28;45560;-71
2023/05/10 01:03:58;;;;;;;;;0.00;0.00;;;;;13.67;63.99;100826.19;4957710;28;48627;-73
2023/05/10 01:06:23;;;;;;;;;0.67;0.67;;;;;13.76;63.56;100847.59;4957552;28;45443;-72
2023/05/10 01:08:48;;;;;;;;;0.00;0.00;;;;;13.88;63.27;100870.34;4974176;28;45562;-72
2023/05/10 01:11:15;;;;;;;;;0.50;0.50;;;;;13.84;63.56;100869.00;4959118;28;45276;-72
2023/05/10 01:13:43;;;;;;;;;1.75;0.75;;;;;13.86;63.87;100881.19;4958864;28;46812;-73
2023/05/10 01:16:08;;;;;;;;;0.00;0.00;;;;;13.90;63.38;100877.19;4958673;28;45458;-71
2023/05/10 01:18:38;;;;;;;;;0.67;0.00;;;;;13.88;63.36;100859.66;4958111;28;45458;-72
2023/05/10 01:21:11;;;;;;;;;1.33;0.67;;;;;13.86;62.76;100859.00;4974362;28;45500;-73
2023/05/10 01:23:59;;;;;;;;;0.00;0.00;;;;;13.91;62.62;100872.69;4958876;28;45261;-72
2023/05/10 01:27:15;;;;;;;;;0.00;0.00;;;;;13.94;62.86;100861.66;4957281;28;45384;-73
2023/05/10 01:30:01;;;;;;;;;0.00;0.00;;;;;14.03;62.76;100870.56;4918100;28;45409;-72
2023/05/10 01:32:50;;;;;;;;;0.67;0.67;;;;;14.07;62.89;100883.44;4956173;28;45706;-72
2023/05/10 01:35:18;;;;;;;;;0.25;0.00;;;;;13.42;62.53;100776.38;4973034;28;47933;-72
2023/05/10 01:37:49;;;;;;;;;1.00;1.00;;;;;13.93;62.67;100862.66;4958414;28;45243;-72
2023/05/10 01:40:26;;;;;;;;;0.25;0.25;;;;;13.95;62.28;100858.00;4958858;28;45420;-73
2023/05/10 01:42:56;;;;;;;;;0.00;0.00;;;;;13.56;62.15;100793.59;4958821;28;45436;-72
2023/05/10 01:45:31;;;;;;;;;2.75;0.00;;;;;14.00;62.66;100874.38;4958271;28;47065;-72
2023/05/10 01:48:09;;;;;;;;;0.00;0.00;;;;;13.98;62.47;100871.03;4973549;28;46112;-72
2023/05/10 01:50:38;;;;;;;;;1.00;0.00;;;;;13.90;62.52;100865.69;4957208;28;45339;-72
2023/05/10 01:53:07;;;;;;;;;0.00;0.00;;;;;13.90;62.45;100871.03;4958017;28;45378;-72
2023/05/10 01:55:39;;;;;;;;;0.00;0.00;;;;;13.27;62.13;100769.97;4958302;28;46541;-72
2023/05/10 01:58:09;;;;;;;;;1.00;0.00;;;;;13.85;62.38;100873.34;4956733;28;46345;-73
2023/05/10 02:00:35;;;;;;;;;0.67;0.67;;;;;13.39;62.52;100793.53;4958405;28;45481;-72
2023/05/10 02:03:05;;;;;;;;;0.75;0.75;;;;;13.72;62.80;100852.41;4973408;28;45499;-72
2023/05/10 02:05:33;;;;;;;;;0.50;0.50;;;;;13.66;62.74;100858.41;4958311;28;46328;-72
2023/05/10 02:08:00;;;;;;;;;0.00;0.00;;;;;13.70;62.76;100871.28;4958300;28;45352;-72
2023/05/10 02:10:27;;;;;;;;;2.75;0.00;;;;;13.75;62.41;100872.63;4956925;28;45461;-72
2023/05/10 02:12:54;;;;;;;;;2.00;1.00;;;;;13.55;62.40;100845.34;4956594;28;45622;-73
2023/05/10 02:15:23;;;;;;;;;0.00;0.00;;;;;13.65;62.87;100880.78;4958314;28;46654;-72
2023/05/10 02:17:49;;;;;;;;;0.00;0.00;;;;;13.78;62.98;100899.03;4958550;28;45563;-71
2023/05/10 02:20:16;;;;;;;;;0.00;0.00;;;;;13.72;62.51;100856.94;4956866;28;45371;-72
2023/05/10 02:22:42;;;;;;;;;0.00;0.00;;;;;13.85;62.61;100881.38;4957015;28;45711;-72
2023/05/10 02:25:10;;;;;;;;;0.33;0.00;;;;;13.85;62.42;100890.22;4956234;28;47303;-72
2023/05/10 02:27:36;;;;;;;;;0.00;0.00;;;;;13.82;62.54;100876.34;4972426;28;46269;-72
2023/05/10 02:30:03;;;;;;;;;0.00;0.00;;;;;13.19;62.28;100791.25;4958022;28;45480;-72
2023/05/10 02:32:29;;;;;;;;;0.00;0.00;;;;;13.88;62.50;100891.72;4957981;28;45380;-73
2023/05/10 02:34:57;;;;;;;;;1.00;0.00;;;;;13.75;62.55;100868.13;4957558;28;45459;-72
2023/05/10 02:37:22;;;;;;;;;0.00;0.00;;;;;13.85;62.42;100884.88;4957997;28;45318;-72
2023/05/10 02:39:49;;;;;;;;;0.67;0.00;;;;;13.15;62.00;100768.53;4973599;28;45537;-71
2023/05/10 02:42:25;;;;;;;;;0.00;0.00;;;;;13.75;62.16;100886.81;4959195;28;45544;-72
2023/05/10 02:44:54;;;;;;;;;0.00;0.00;;;;;13.70;62.45;100887.31;4972897;28;49158;-73
2023/05/10 02:47:19;;;;;;;;;0.00;0.00;;;;;13.74;62.42;100871.78;4957727;28;45375;-73
2023/05/10 02:49:45;;;;;;;;;1.00;0.00;;;;;13.77;62.08;100881.31;4956401;28;45446;-72
2023/05/10 02:52:19;;;;;;;;;0.00;0.00;;;;;13.63;62.90;100864.91;4972777;28;45513;-72
2023/05/10 02:54:48;;;;;;;;;0.25;0.00;;;;;13.72;62.46;100878.31;4956157;28;48997;-73
2023/05/10 02:57:19;;;;;;;;;1.00;1.00;;;;;13.79;62.60;100879.31;4957165;28;45252;-72
2023/05/10 02:59:45;;;;;;;;;0.00;0.00;;;;;13.70;62.75;100865.09;4957387;28;45492;-73
2023/05/10 03:02:12;;;;;;;;;0.00;0.00;;;;;13.75;62.47;100867.28;4956461;28;45561;-72
2023/05/10 03:04:38;;;;;;;;;3.00;2.00;;;;;13.34;62.39;100789.66;4957290;28;45799;-70
2023/05/10 03:07:03;;;;;;;;;1.25;0.00;;;;;13.81;62.59;100863.97;4957405;28;45275;-72
2023/05/10 03:09:29;;;;;;;;;0.00;0.00;;;;;13.59;62.15;100831.50;4956175;28;45505;-72
2023/05/10 03:12:11;;;;;;;;;0.67;0.00;;;;;13.78;62.91;100866.97;4957561;28;46618;-72
2023/05/10 03:14:48;;;;;;;;;0.00;0.00;;;;;13.81;62.87;100858.63;4957317;28;45662;-73
2023/05/10 03:17:34;;;;;;;;;2.25;0.00;;;;;13.70;62.93;100860.59;4956404;28;45260;-72
2023/05/10 03:20:06;;;;;;;;;0.00;0.00;;;;;13.67;63.19;100866.28;4972793;28;45651;-72
2023/05/10 03:22:37;;;;;;;;;0.67;0.00;;;;;13.63;63.39;100862.25;4956959;28;45604;-72
2023/05/10 03:25:06;;;;;;;;;0.00;0.00;;;;;13.69;63.23;100858.94;4957243;28;45650;-73
2023/05/10 03:27:33;;;;;;;;;0.00;0.00;;;;;13.74;63.50;100852.25;4956945;28;45343;-73
2023/05/10 03:29:59;;;;;;;;;0.00;0.00;;;;;13.80;63.02;100865.78;4957410;28;45531;-72
2023/05/10 03:32:26;;;;;;;;;0.67;0.67;;;;;13.57;63.43;100825.47;4972231;28;45318;-72
2023/05/10 03:34:52;;;;;;;;;0.00;0.00;;;;;13.31;63.60;100782.81;4956958;28;46589;-73
2023/05/10 03:37:17;;;;;;;;;0.00;0.00;;;;;13.55;63.51;100814.13;4958004;28;45562;-73
2023/05/10 03:39:43;;;;;;;;;0.67;0.33;;;;;13.63;63.83;100856.91;4955756;28;45264;-72
2023/05/10 03:42:11;;;;;;;;;0.00;0.00;;;;;13.72;64.02;100857.75;4955826;28;45652;-72
2023/05/10 03:44:37;;;;;;;;;0.00;0.00;;;;;13.68;64.64;100854.59;4957474;28;46873;-71
2023/05/10 03:47:02;;;;;;;;;0.00;0.00;;;;;13.44;65.14;100825.09;4955589;28;46177;-72
2023/05/10 03:49:27;;;;;;;;;0.00;0.00;;;;;13.74;65.20;100865.63;4955542;28;45360;-72
2023/05/10 03:51:53;;;;;;;;;0.67;0.67;;;;;13.67;65.26;100849.41;4957109;28;45472;-72
2023/05/10 03:54:18;;;;;;;;;0.67;0.67;;;;;13.72;65.33;100838.22;4956890;28;45582;-73
2023/05/10 03:56:43;;;;;;;;;0.00;0.00;;;;;13.80;65.68;100859.63;4955967;28;45466;-71
2023/05/10 03:59:09;;;;;;;;;0.00;0.00;;;;;13.84;65.58;100874.34;4959121;28;45433;-71
2023/05/10 04:01:34;;;;;;;;;0.00;0.00;;;;;13.08;66.42;100753.16;4961213;28;45251;-72
2023/05/10 04:04:00;;;;;;;;;0.67;0.00;;;;;13.72;66.72;100860.44;4960439;28;45591;-73
2023/05/10 04:06:25;;;;;;;;;0.00;0.00;;;;;13.71;66.97;100872.13;4959812;28;45215;-72
2023/05/10 04:08:50;;;;;;;;;0.67;0.00;;;;;13.70;67.44;100867.78;4958906;28;45501;-72
2023/05/10 04:11:16;;;;;;;;;0.00;0.00;;;;;13.70;67.42;100860.59;4958863;28;45289;-73
2023/05/10 04:13:42;;;;;;;;;0.33;0.33;;;;;13.52;67.87;100840.31;4959605;28;45674;-72
2023/05/10 04:16:08;;;;;;;;;0.33;0.00;;;;;13.65;67.80;100844.22;4959378;28;45472;-72
2023/05/10 04:18:33;;;;;;;;;0.67;0.00;;;;;13.62;67.69;100830.34;4959851;28;45279;-73
2023/05/10 04:20:59;;;;;;;;;1.00;0.00;;;;;13.62;67.88;100833.88;4960240;28;45242;-73
2023/05/10 04:23:24;;;;;;;;;0.00;0.00;;;;;13.64;67.83;100839.03;4957765;28;47736;-72
2023/05/10 04:25:49;;;;;;;;;0.00;0.00;;;;;13.59;67.89;100839.50;4959415;28;45337;-72
2023/05/10 04:28:14;;;;;;;;;0.00;0.00;;;;;13.51;67.68;100820.78;4960635;28;45447;-71
2023/05/10 04:30:40;;;;;;;;;8.33;3.33;;;;;13.05;69.11;100737.47;4960149;28;45411;-73
2023/05/10 04:33:05;;;;;;;;;0.00;0.00;;;;;13.74;68.96;100845.06;4959664;28;45706;-73
2023/05/10 04:35:31;;;;;;;;;0.00;0.00;;;;;13.80;69.04;100856.94;4958070;28;46349;-72
2023/05/10 04:37:56;;;;;;;;;0.67;0.00;;;;;13.79;68.80;100858.78;4958402;28;45494;-72
2023/05/10 04:40:21;;;;;;;;;0.00;0.00;;;;;13.79;69.00;100856.09;4959481;28;45448;-72
2023/05/10 04:42:47;;;;;;;;;0.00;0.00;;;;;13.60;68.75;100817.13;4957305;28;48105;-72
2023/05/10 04:45:14;;;;;;;;;0.67;0.67;;;;;13.78;69.29;100846.41;4958785;28;56193;-72
2023/05/10 04:47:40;;;;;;;;;0.00;0.00;;;;;13.58;69.41;100805.78;4959343;28;45160;-71
2023/05/10 04:50:06;;;;;;;;;1.00;1.00;;;;;13.89;69.55;100854.16;4959575;28;45316;-72
2023/05/10 04:52:31;;;;;;;;;0.67;0.67;;;;;13.93;69.20;100854.66;4957671;28;46578;-73
2023/05/10 04:54:57;;;;;;;;;0.00;0.00;;;;;13.79;69.28;100829.38;4958603;28;45218;-71
2023/05/10 04:57:22;;;;;;;;;1.00;1.00;;;;;13.81;69.58;100834.56;4959044;28;45925;-71
2023/05/10 04:59:47;;;;;;;;;1.00;1.00;;;;;13.84;69.37;100837.78;4958154;28;45423;-73
2023/05/10 05:02:13;;;;;;;;;1.33;1.33;;;;;13.72;69.81;100809.66;4958821;28;46538;-73
2023/05/10 05:04:38;;;;;;;;;0.00;0.00;;;;;13.87;70.06;100840.13;4959080;28;45500;-73
2023/05/10 05:07:04;;;;;;;;;0.67;0.67;;;;;13.84;70.61;100861.00;4957804;28;45357;-72
2023/05/10 05:09:31;;;;;;;;;0.75;0.75;;;;;13.89;70.66;100853.31;4958071;28;45628;-73
2023/05/10 05:11:57;;;;;;;;;1.00;1.00;;;;;13.84;70.93;100839.59;4958411;28;45420;-73
2023/05/10 05:14:24;;;;;;;;;2.00;1.00;;;;;13.87;70.78;100845.47;4958810;28;45374;-73
2023/05/10 05:16:50;;;;;;;;;2.33;2.33;;;;;13.20;70.52;100728.84;4958886;28;45222;-72
2023/05/10 05:19:15;;;;;;;;;2.33;2.33;;;;;13.96;70.71;100855.16;4957727;28;45429;-71
2023/05/10 05:21:41;;;;;;;;;1.33;1.33;;;;;13.83;70.01;100828.09;4958275;28;46687;-73
2023/05/10 05:24:06;;;;;;;;;2.00;1.00;;;;;13.94;70.61;100837.63;4958608;28;46265;-72
2023/05/10 05:26:32;;;;;;;;;0.67;0.67;;;;;13.92;70.56;100829.75;4957227;28;45207;-72
2023/05/10 05:28:57;;;;;;;;;1.67;1.67;;;;;14.04;70.93;100853.53;4974080;28;45545;-72
2023/05/10 05:31:22;;;;;;;;;4.00;2.67;;;;;14.04;70.59;100854.34;4958711;28;46310;-73
2023/05/10 05:33:48;;;;;;;;;1.67;1.67;;;;;14.03;70.45;100851.84;4957126;28;45348;-73
2023/05/10 05:36:13;;;;;;;;;1.00;1.00;;;;;14.13;70.93;100853.38;4953596;28;49442;-73
2023/05/10 05:38:38;;;;;;;;;1.00;1.00;;;;;14.06;70.48;100860.38;4956351;28;45484;-72
2023/05/10 05:41:04;;;;;;;;;0.67;0.67;;;;;13.79;70.51;100828.53;4957089;28;47727;-73
2023/05/10 05:43:29;;;;;;;;;1.67;1.67;;;;;13.96;71.01;100854.31;4973127;28;45399;-75
2023/05/10 05:45:57;;;;;;;;;2.00;1.00;;;;;13.96;71.13;100857.00;4957542;28;45443;-71
2023/05/10 05:48:23;;;;;;;;;0.00;0.00;;;;;13.83;71.36;100840.59;4957257;28;45375;-72
2023/05/10 05:50:48;;;;;;;;;1.00;1.00;;;;;13.98;71.01;100857.66;4957055;28;47336;-74
2023/05/10 05:53:13;;;;;;;;;1.00;1.00;;;;;14.01;71.13;100852.00;4956589;28;51381;-73
2023/05/10 05:55:39;;;;;;;;;2.00;2.00;;;;;14.03;71.17;100858.03;4956906;28;45547;-72
2023/05/10 05:58:05;;;;;;;;;2.00;1.33;;;;;14.10;71.68;100875.09;4958289;28;45439;-74
2023/05/10 06:00:31;;;;;;;;;4.67;3.67;;;;;14.20;71.05;100870.41;4956380;28;45678;-73
2023/05/10 06:02:56;;;;;;;;;2.33;2.00;;;;;14.32;71.33;100870.94;4957619;28;45524;-72
2023/05/10 06:05:22;;;;;;;;;2.00;2.00;;;;;13.94;71.53;100792.19;4957846;28;45376;-73
2023/05/10 06:07:47;;;;;;;;;2.67;2.67;;;;;14.54;70.78;100878.34;4973272;28;45348;-72
2023/05/10 06:10:12;;;;;;;;;5.00;2.00;;;;;14.62;70.84;100882.88;4972601;28;46986;-72
2023/05/10 06:12:38;;;;;;;;;3.00;2.00;;;;;14.71;70.45;100870.34;4956313;28;45264;-70
2023/05/10 06:15:03;;;;;;;;;2.00;2.00;;;;;14.87;70.38;100892.56;4957756;28;45204;-72
2023/05/10 06:17:29;;;;;;;;;3.33;2.00;;;;;15.03;70.78;100872.16;4958851;28;45376;-73
2023/05/10 06:19:54;;;;;;;;;2.00;1.00;;;;;15.04;70.27;100833.66;4956737;28;46593;-72
2023/05/10 06:22:22;;;;;;;;;2.00;2.00;;;;;14.81;69.27;100775.47;4958017;28;45302;-74
2023/05/10 06:24:48;;;;;;;;;1.00;1.00;;;;;15.52;69.24;100884.41;4958116;28;45300;-73
2023/05/10 06:27:13;;;;;;;;;4.00;3.00;;;;;15.36;68.92;100868.38;4956018;28;45507;-71
2023/05/10 06:29:38;;;;;;;;;5.00;2.00;;;;;14.72;68.24;100783.69;4956345;28;47669;-75
2023/05/10 06:32:04;;;;;;;;;3.67;2.00;;;;;15.17;68.79;100866.09;4957791;28;45298;-73
2023/05/10 06:34:29;;;;;;;;;2.67;2.67;;;;;14.81;69.15;100802.22;4957926;28;45591;-73
2023/05/10 06:36:55;;;;;;;;;4.67;4.67;;;;;15.34;69.97;100893.66;4957805;28;45223;-75
2023/05/10 06:39:20;;;;;;;;;2.00;2.00;;;;;14.68;69.23;100796.56;4957472;28;45653;-75
2023/05/10 06:41:45;;;;;;;;;3.00;1.67;;;;;15.19;69.66;100885.50;4956849;28;55880;-73
2023/05/10 06:44:11;;;;;;;;;3.00;3.00;;;;;14.62;69.51;100821.34;4957211;28;45231;-73
2023/05/10 06:46:36;;;;;;;;;2.00;2.00;;;;;14.96;70.25;100900.59;4972494;28;45453;-72
2023/05/10 06:49:01;;;;;;;;;3.67;3.00;;;;;14.87;70.39;100868.47;4956389;28;47503;-73
2023/05/10 06:51:27;;;;;;;;;3.00;3.00;;;;;15.02;70.43;100899.94;4956055;28;46057;-74
2023/05/10 06:53:53;;;;;;;;;4.00;3.67;;;;;15.00;70.26;100891.22;4956067;28;45283;-72
2023/05/10 06:56:21;;;;;;;;;4.33;4.33;;;;;14.99;70.26;100885.03;4972600;28;45505;-71
2023/05/10 06:58:46;;;;;;;;;5.33;4.00;;;;;15.03;69.87;100885.53;4952922;28;47874;-72
2023/05/10 07:01:12;;;;;;;;;1.75;1.75;;;;;15.00;69.67;100888.53;4955694;28;45681;-73
2023/05/10 07:03:37;;;;;;;;;4.33;3.00;;;;;14.54;70.21;100807.94;4956933;28;45414;-75
2023/05/10 07:06:04;;;;;;;;;4.00;3.00;;;;;15.18;70.22;100907.94;4957150;28;45518;-71
2023/05/10 07:08:33;;;;;;;;;6.67;4.00;;;;;15.17;69.51;100915.13;4954136;28;45572;-73
2023/05/10 07:11:08;;;;;;;;;9.33;6.00;;;;;14.83;69.74;100860.97;4951648;28;45386;-75
2023/05/10 07:13:34;;;;;;;;;2.33;2.33;;;;;15.17;69.84;100914.28;4937217;28;45626;-71
2023/05/10 07:16:01;;;;;;;;;3.00;3.00;;;;;15.24;69.49;100912.63;4947517;28;45356;-73
2023/05/10 07:18:27;;;;;;;;;3.00;3.00;;;;;15.41;70.18;100922.28;4952316;28;46431;-71
2023/05/10 07:20:52;;;;;;;;;3.33;2.33;;;;;15.47;69.76;100910.06;4955019;28;45377;-71
2023/05/10 07:23:18;;;;;;;;;6.00;4.00;;;;;15.65;69.40;100920.59;4937169;28;45386;-71
2023/05/10 07:25:51;;;;;;;;;5.33;5.33;;;;;15.74;69.04;100923.06;4950529;28;45496;-73
2023/05/10 07:28:17;;;;;;;;;4.00;4.00;;;;;15.49;68.79;100890.13;4967833;28;48076;-72
2023/05/10 07:30:43;;;;;;;;;7.00;7.00;;;;;15.71;68.78;100919.88;4963915;28;45630;-75
2023/05/10 07:33:10;;;;;;;;;6.67;6.00;;;;;15.59;68.82;100891.78;4957433;28;45410;-72
2023/05/10 07:35:35;;;;;;;;;3.00;3.00;;;;;15.69;68.54;100913.88;4958720;28;45632;-72
2023/05/10 07:38:01;;;;;;;;;6.00;4.00;;;;;15.64;68.67;100917.06;4941819;28;46297;-73
2023/05/10 07:40:27;;;;;;;;;3.00;3.00;;;;;15.52;68.58;100907.69;4939036;28;45309;-72
2023/05/10 07:42:53;;;;;;;;;4.50;3.50;;;;;15.45;68.92;100896.00;4957079;28;45370;-73
2023/05/10 07:45:18;;;;;;;;;4.25;4.25;;;;;15.26;69.40;100878.47;4973634;28;45316;-72
2023/05/10 07:47:43;;;;;;;;;4.25;4.00;;;;;15.39;69.99;100929.66;4949869;28;45528;-73
2023/05/10 07:50:09;;;;;;;;;5.00;4.00;;;;;15.20;70.29;100914.78;4954727;28;46330;-71
2023/05/10 07:52:34;;;;;;;;;3.00;2.33;;;;;15.26;70.17;100924.00;4940179;28;45355;-72
2023/05/10 07:54:59;;;;;;;;;2.00;2.00;;;;;15.03;70.42;100888.22;4942685;28;45833;-72
2023/05/10 07:57:25;;;;;;;;;2.00;2.00;;;;;15.25;70.72;100933.03;4944508;28;47811;-73
2023/05/10 07:59:50;;;;;;;;;2.00;2.00;;;;;15.27;70.44;100943.59;4950401;28;45339;-74
2023/05/10 08:02:15;;;;;;;;;5.00;5.00;;;;;15.25;71.02;100927.69;4958305;28;47751;-73
2023/05/10 08:04:41;;;;;;;;;5.00;5.00;;;;;15.14;70.99;100912.78;4959127;28;45520;-74
2023/05/10 08:07:07;;;;;;;;;7.00;5.00;;;;;15.18;71.39;100907.94;4974122;28;47271;-73
2023/05/10 08:09:32;;;;;;;;;4.00;4.00;;;;;15.28;71.38;100932.69;4959818;28;45291;-73
2023/05/10 08:11:59;;;;;;;;;4.00;3.67;;;;;15.26;70.93;100924.00;4950456;28;45517;-72
2023/05/10 08:14:24;;;;;;;;;3.33;2.33;;;;;15.39;70.48;100935.00;4939637;28;45504;-73
2023/05/10 08:16:49;;;;;;;;;4.00;4.00;;;;;15.44;70.15;100943.38;4942393;28;45576;-73
2023/05/10 08:19:18;;;;;;;;;5.00;5.00;;;;;14.85;69.95;100840.22;4954733;28;45404;-73
2023/05/10 08:21:44;;;;;;;;;6.67;6.33;;;;;15.49;70.00;100937.50;4942779;28;45507;-70
2023/05/10 08:24:09;;;;;;;;;3.67;2.67;;;;;15.37;69.69;100929.00;4958165;28;45331;-71
2023/05/10 08:26:35;;;;;;;;;6.00;6.00;;;;;15.48;70.17;100939.34;4957582;28;45469;-76
2023/05/10 08:29:00;;;;;;;;;2.33;2.33;;;;;15.49;69.32;100945.56;4956084;28;55502;-70
2023/05/10 08:31:25;;;;;;;;;3.00;3.00;;;;;15.38;69.73;100933.34;4972941;28;45372;-71
2023/05/10 08:33:52;;;;;;;;;5.33;4.00;;;;;15.43;69.26;100949.75;4949255;28;53096;-73
2023/05/10 08:36:21;;;;;;;;;6.00;4.75;;;;;15.37;69.35;100937.03;4958858;28;46040;-73
2023/05/10 08:38:55;;;;;;;;;18.50;17.00;;;;;15.47;69.60;100953.75;4958037;28;45449;-74
2023/05/10 08:41:23;;;;;;;;;2.25;2.25;;;;;15.35;69.65;100933.69;4955507;28;45438;-73
2023/05/10 08:43:50;;;;;;;;;2.75;2.75;;;;;15.24;69.75;100912.63;4943619;28;45491;-73
2023/05/10 08:46:17;;;;;;;;;3.00;3.00;;;;;15.72;70.03;100964.44;4956359;28;46253;-74
2023/05/10 08:48:44;;;;;;;;;3.75;3.75;;;;;15.63;69.82;100949.41;4945945;28;45645;-73
2023/05/10 08:51:13;;;;;;;;;4.67;4.00;;;;;15.69;69.17;100946.03;4943221;28;45605;-72
2023/05/10 08:53:39;;;;;;;;;2.67;2.67;;;;;15.92;69.38;100978.28;4949611;28;45425;-73
2023/05/10 08:56:05;;;;;;;;;2.25;2.25;;;;;15.87;68.40;100965.41;4937104;28;45604;-73
2023/05/10 08:58:30;;;;;;;;;5.00;4.00;;;;;16.03;68.23;100973.41;4927127;28;46395;-73
2023/05/10 09:00:57;;;;;;;;;7.00;5.00;;;;;15.94;67.69;100947.63;4938958;28;45451;-74
2023/05/10 09:03:23;;;;;;;;;4.00;4.00;;;;;16.12;67.95;100984.91;4929400;28;45549;-72
2023/05/10 09:05:49;;;;;;;;;8.00;4.67;;;;;16.14;67.51;100977.53;4932008;28;48018;-74
2023/05/10 09:08:16;;;;;;;;;4.67;4.67;;;;;16.28;67.50;100984.00;4929928;28;46509;-73
2023/05/10 09:10:43;;;;;;;;;8.33;6.33;;;;;16.45;66.76;100980.25;4923039;28;45362;-72
2023/05/10 09:13:10;;;;;;;;;3.67;3.67;;;;;17.15;65.01;100993.53;4939407;28;45467;-76
2023/05/10 09:15:36;;;;;;;;;10.00;8.33;;;;;17.97;63.71;101004.34;4940171;28;47555;-75
2023/05/10 09:18:02;;;;;;;;;10.33;10.00;;;;;18.26;62.17;100956.91;4923953;28;45489;-78
2023/05/10 09:20:27;;;;;;;;;11.00;10.00;;;;;18.46;60.71;100961.50;4930971;28;45478;-74
2023/05/10 09:22:53;;;;;;;;;20.67;15.33;;;;;18.69;60.17;100993.66;4938563;28;45507;-76
2023/05/10 09:25:19;;;;;;;;;5.00;4.00;;;;;18.60;59.55;100989.38;4934311;28;48555;-75
2023/05/10 09:27:46;;;;;;;;;5.67;5.00;;;;;18.65;59.61;100996.94;4945181;28;45566;-76
2023/05/10 09:30:25;;;;;;;;;11.33;8.67;;;;;18.67;60.28;100994.88;4952061;28;45577;-79
2023/05/10 09:32:51;;;;;;;;;3.33;3.33;;;;;18.63;60.06;100999.00;4934768;28;45755;-76
2023/05/10 09:35:19;;;;;;;;;6.67;6.67;;;;;18.54;59.19;100990.16;4939496;28;45869;-77
2023/05/10 09:37:47;;;;;;;;;4.33;3.00;;;;;18.11;59.83;100924.63;4946479;28;46157;-77
2023/05/10 09:40:16;;;;;;;;;5.00;5.00;;;;;18.79;60.17;101029.19;4940435;28;45509;-79
2023/05/10 09:42:50;;;;;;;;;8.67;7.00;;;;;18.27;60.00;100929.81;4938029;28;45442;-78
2023/05/10 09:45:15;;;;;;;;;9.33;7.33;;;;;18.74;60.00;101006.56;4958190;28;46395;-74
2023/05/10 09:47:41;;;;;;;;;6.00;6.00;;;;;18.87;59.23;101039.03;4954849;28;45493;-79
2023/05/10 09:50:07;;;;;;;;;6.67;6.67;;;;;18.89;59.64;101030.75;4938073;28;45420;-76
2023/05/10 09:52:53;;;;;;;;;5.00;4.33;;;;;19.10;58.44;101033.47;4939880;28;45577;-78
2023/05/10 09:55:22;;;;;;;;;9.33;6.00;;;;;19.12;57.34;101032.25;4936693;28;46172;-79
2023/05/10 09:57:48;;;;;;;;;7.50;7.50;;;;;19.12;58.62;101045.72;4937075;28;45731;-80
2023/05/10 10:00:19;;;;;;;;;11.33;9.00;;;;;18.93;57.95;101005.09;4936429;28;45424;-78
2023/05/10 10:02:53;;;;;;;;;5.00;5.00;;;;;19.08;57.29;101041.75;4953499;28;45422;-78
2023/05/10 10:05:19;;;;;;;;;6.25;5.50;;;;;18.98;57.29;101046.59;4941164;28;46416;-78
2023/05/10 10:07:44;;;;;;;;;7.00;6.25;;;;;18.72;58.63;101012.13;4953453;28;45580;-77
2023/05/10 10:10:12;;;;;;;;;5.50;4.50;;;;;18.86;57.16;101044.63;4940751;28;45559;-76
2023/05/10 10:12:41;;;;;;;;;8.25;7.00;;;;;18.76;57.37;101048.44;4921387;28;45353;-78
2023/05/10 10:15:08;;;;;;;;;6.00;6.00;;;;;18.42;57.16;101019.44;4938599;28;46974;-79
2023/05/10 10:17:36;;;;;;;;;6.33;6.33;;;;;18.26;57.80;101010.72;4938611;28;45360;-80
2023/05/10 10:20:03;;;;;;;;;7.33;4.67;;;;;18.28;57.68;101033.75;4940287;28;45364;-79
2023/05/10 10:22:28;;;;;;;;;6.33;6.00;;;;;17.81;59.32;100980.31;4938557;28;45474;-78
2023/05/10 10:24:54;;;;;;;;;9.00;9.00;;;;;18.09;59.02;101047.75;4939437;28;46309;-78
2023/05/10 10:27:25;;;;;;;;;8.67;6.33;;;;;17.88;59.54;101043.13;4939424;28;46027;-77
2023/05/10 10:30:03;;;;;;;;;7.67;7.33;;;;;17.74;59.06;101034.00;4939362;28;45481;-79
2023/05/10 10:33:08;;;;;;;;;8.67;7.00;;;;;17.79;58.71;101049.59;4955775;28;45616;-75
2023/05/10 10:35:34;;;;;;;;;9.33;8.33;;;;;17.74;59.64;101044.75;4953867;28;45583;-78
2023/05/10 10:38:00;;;;;;;;;10.33;8.33;;;;;17.92;59.37;101047.94;4935558;28;45921;-77
2023/05/10 10:40:31;;;;;;;;;9.50;7.75;;;;;17.89;59.08;101025.97;4938333;28;45446;-80
2023/05/10 10:42:57;;;;;;;;;9.33;8.00;;;;;17.88;58.45;101000.91;4937137;28;45598;-78
2023/05/10 10:45:24;;;;;;;;;7.00;5.33;;;;;18.10;58.53;101011.75;4940399;28;47917;-80
2023/05/10 10:48:22;;;;;;;;;8.00;7.67;;;;;18.38;58.45;101047.72;4942577;28;45257;-80
2023/05/10 10:50:47;;;;;;;;;9.33;7.00;;;;;18.50;57.89;101046.25;4957331;28;45411;-78
2023/05/10 10:53:13;;;;;;;;;10.33;7.33;;;;;18.52;57.87;101036.13;4940547;28;45577;-78
2023/05/10 10:55:47;;;;;;;;;10.00;9.33;;;;;18.59;57.20;101046.13;4940127;28;47322;-78
2023/05/10 10:58:29;;;;;;;;;11.33;8.00;;;;;18.46;57.20;101031.50;4940527;28;45517;-78
2023/05/10 11:01:10;;;;;;;;;8.00;7.00;;;;;18.47;55.69;101032.31;4939027;28;45473;-81
2023/05/10 11:03:36;;;;;;;;;8.33;7.33;;;;;18.54;55.95;101054.78;4940231;28;45315;-77
2023/05/10 11:06:02;;;;;;;;;9.33;7.33;;;;;17.93;55.86;100950.06;4958577;28;46961;-80
2023/05/10 11:08:32;;;;;;;;;5.00;5.00;;;;;18.42;55.98;101057.13;4960811;28;45378;-79
2023/05/10 11:11:00;;;;;;;;;9.33;8.67;;;;;18.49;55.76;101057.19;4960804;28;45497;-78
2023/05/10 11:13:35;;;;;;;;;7.00;7.00;;;;;17.98;55.73;100954.06;4960380;28;45403;-80
2023/05/10 11:16:15;;;;;;;;;6.67;6.33;;;;;18.52;54.76;101036.13;4962729;28;46007;-79
2023/05/10 11:18:51;;;;;;;;;9.33;6.00;;;;;18.44;54.77;101033.53;4958968;28;45418;-76
2023/05/10 11:21:17;;;;;;;;;8.00;8.00;;;;;18.10;55.05;100966.03;4958540;28;45521;-77
2023/05/10 11:23:57;;;;;;;;;7.33;5.33;;;;;18.74;54.23;101044.25;4950316;28;45568;-76
2023/05/10 11:26:30;;;;;;;;;4.33;4.00;;;;;18.60;54.15;101004.69;4941533;28;46108;-77